Carman, Canada
Current Conditions -  °F | °C
As of 2:00 AM on Saturday 25 Oct 2014 (Local Time) from CYWG Reporting Station
Clear Clear  
Wind Chill: 35°   Ceiling: Unl
Heat Index: 41°   Visibility: 15mi
Dew Point: 32°   Wind: 9mph
Humidity: 70%   Direction: 280°W
Pressure: 29.87"   Gusts: NA
Location:  49.51°N, 98°W
Report Text: CYWG 250700Z 28008KT 15SM SKC 05/00 A2987 RMK SLP120
Loading
Personal Weather Stations






























Interactive Weather Map
Tropical Storm Tracking
New forecast layout! Learn more

10-Day Weather Forecast

Advertisements
Track Severe Weather on mobile